This is the latest recevied weather packets stored in our database for station/object OE9FWV. If no packets are shown the sender has not sent any weather packets the latest 10 day(s).
| Time | Temp. | Humidity | Pressure | Rain* | Wind** | Luminosity | Snow |
|---|---|---|---|---|---|---|---|
| 1777701817 | 12.22° C | 72% | 1022.9 hPa | 0 mm | - | - | - |
| 1777701215 | 11.67° C | 74% | 1022.9 hPa | 0 mm | - | - | - |
| 1777700612 | 11.11° C | 75% | 1023 hPa | 0 mm | - | - | - |
| 1777697597 | 9.44° C | 77% | 1022.6 hPa | 0 mm | - | - | - |
| 1777696995 | 9.44° C | 77% | 1022.7 hPa | 0 mm | - | - | - |
| 1777696390 | 10° C | 76% | 1022.7 hPa | 0 mm | - | - | - |
| 1777695785 | 10° C | 76% | 1022.6 hPa | 0 mm | - | - | - |
| 1777694582 | 10° C | 76% | 1022.7 hPa | 0 mm | - | - | - |
| 1777693972 | 10° C | 75% | 1022.5 hPa | 0 mm | - | - | - |
| 1777693367 | 10° C | 75% | 1022.5 hPa | 0 mm | - | - | - |
| 1777692763 | 10° C | 75% | 1022.5 hPa | 0 mm | - | - | - |
| 1777690958 | 10.56° C | 73% | 1022.5 hPa | 0 mm | - | - | - |
| 1777690348 | 10.56° C | 73% | 1022.6 hPa | 0 mm | - | - | - |
| 1777689738 | 11.11° C | 72% | 1022.6 hPa | 0 mm | - | - | - |
| 1777689134 | 11.11° C | 72% | 1022.7 hPa | 0 mm | - | - | - |
| 1777688534 | 11.11° C | 72% | 1022.6 hPa | 0 mm | - | - | - |
| 1777687931 | 11.11° C | 71% | 1022.6 hPa | 0 mm | - | - | - |
| 1777687320 | 11.11° C | 70% | 1022.6 hPa | 0 mm | - | - | - |
| 1777686716 | 11.67° C | 70% | 1022.6 hPa | 0 mm | - | - | - |
| 1777686116 | 11.67° C | 68% | 1022.6 hPa | 0 mm | - | - | - |
| 1777685511 | 12.22° C | 67% | 1022.6 hPa | 0 mm | - | - | - |
| 1777684904 | 12.22° C | 67% | 1022.8 hPa | 0 mm | - | - | - |
| 1777684295 | 12.22° C | 67% | 1022.8 hPa | 0 mm | - | - | - |
| 1777683695 | 12.22° C | 66% | 1022.7 hPa | 0 mm | - | - | - |
| 1777682486 | 12.78° C | 65% | 1022.9 hPa | 0 mm | - | - | - |
* Rain latest hour (hover to see other rain measurements)
** Current wind speed in m/s (hover to see current wind gust speed)